Time;durP1;ratioP1;P1;durP2;ratioP2;P2;SDS_P1;SDS_P2;PMS_P1;PMS_P2;Temp;Humidity;BMP_temperature;BMP_pressure;BME280_temperature;BME280_humidity;BME280_pressure;Samples;Min_cycle;Max_cycle;Signal;HPM_P1;HPM_P2
2021/09/10 00:00:30;;;;;;;5.50;4.80;;;22.50;72.90;;;;;;5082995;28;20024;-60
2021/09/10 00:02:55;;;;;;;7.65;5.07;;;22.50;73.00;;;;;;5082901;28;20066;-61
2021/09/10 00:05:21;;;;;;;5.55;4.80;;;22.40;72.90;;;;;;5083544;28;20340;-60
2021/09/10 00:07:46;;;;;;;6.03;5.25;;;22.40;73.00;;;;;;5083939;28;20038;-61
2021/09/10 00:10:12;;;;;;;6.30;4.72;;;22.40;73.10;;;;;;5083136;28;20123;-60
2021/09/10 00:12:37;;;;;;;5.22;4.70;;;22.40;73.10;;;;;;5062772;28;20483;-60
2021/09/10 00:15:04;;;;;;;6.72;5.13;;;22.40;73.20;;;;;;5083997;28;20350;-61
2021/09/10 00:17:29;;;;;;;5.38;4.88;;;22.40;73.30;;;;;;5080885;28;20055;-60
2021/09/10 00:19:55;;;;;;;6.07;5.20;;;22.40;73.30;;;;;;5063360;28;20143;-60
2021/09/10 00:22:20;;;;;;;6.45;4.93;;;22.40;73.40;;;;;;5084115;28;20077;-61
2021/09/10 00:24:46;;;;;;;5.40;4.90;;;22.40;73.60;;;;;;5061663;28;20048;-61
2021/09/10 00:27:11;;;;;;;9.38;6.03;;;22.30;73.60;;;;;;5080621;28;20039;-61
2021/09/10 00:29:37;;;;;;;21.20;7.43;;;22.30;73.60;;;;;;5063452;28;20028;-61
2021/09/10 00:32:05;;;;;;;38.78;7.10;;;22.30;73.60;;;;;;5064297;28;20096;-60
2021/09/10 00:34:31;;;;;;;34.33;7.43;;;22.30;73.70;;;;;;5065619;28;20101;-60
2021/09/10 00:36:56;;;;;;;25.83;7.30;;;22.30;73.70;;;;;;5061538;28;20426;-61
2021/09/10 00:39:22;;;;;;;44.85;8.38;;;22.40;73.80;;;;;;5082529;28;20094;-60
2021/09/10 00:41:48;;;;;;;31.23;7.55;;;22.30;73.90;;;;;;5082240;28;20098;-60
2021/09/10 00:44:13;;;;;;;48.35;8.10;;;22.30;74.10;;;;;;5047472;28;20143;-61
2021/09/10 00:46:39;;;;;;;29.92;7.45;;;22.30;74.20;;;;;;5064427;28;20347;-60
2021/09/10 00:49:04;;;;;;;35.65;7.93;;;22.20;74.20;;;;;;5063627;28;20130;-61
2021/09/10 00:51:30;;;;;;;36.60;7.95;;;22.30;74.40;;;;;;5064274;28;20028;-60
2021/09/10 00:53:55;;;;;;;57.95;10.13;;;22.30;74.50;;;;;;5082533;28;21074;-61
2021/09/10 00:56:21;;;;;;;46.70;9.38;;;22.20;74.40;;;;;;5081682;28;20039;-60
2021/09/10 00:58:46;;;;;;;78.93;9.75;;;22.30;74.50;;;;;;5083879;28;20035;-60
2021/09/10 01:01:12;;;;;;;55.28;9.60;;;22.20;74.80;;;;;;5082619;28;20016;-60
2021/09/10 01:03:38;;;;;;;55.05;9.13;;;22.20;74.70;;;;;;5082952;28;20048;-61
2021/09/10 01:06:04;;;;;;;54.30;8.80;;;22.20;74.40;;;;;;5082221;28;20045;-60
2021/09/10 01:08:29;;;;;;;37.28;8.88;;;22.20;74.40;;;;;;5080675;28;20043;-60
2021/09/10 01:10:55;;;;;;;44.58;8.75;;;22.20;74.40;;;;;;5063744;28;20024;-60
2021/09/10 01:13:22;;;;;;;42.13;8.98;;;22.20;74.50;;;;;;5062769;28;20028;-60
2021/09/10 01:15:47;;;;;;;38.38;7.68;;;22.20;74.60;;;;;;5062037;28;20125;-60
2021/09/10 01:18:13;;;;;;;39.58;8.75;;;22.20;74.90;;;;;;5064108;28;20069;-61
2021/09/10 01:20:38;;;;;;;32.50;8.40;;;22.20;75.00;;;;;;5062226;28;20254;-61
2021/09/10 01:23:04;;;;;;;43.00;8.30;;;22.20;75.10;;;;;;5083705;28;20668;-60
2021/09/10 01:25:29;;;;;;;29.52;8.05;;;22.20;75.20;;;;;;5045974;28;20066;-61
2021/09/10 01:27:57;;;;;;;42.15;8.93;;;22.20;75.20;;;;;;5063043;28;20131;-61
2021/09/10 01:30:27;;;;;;;27.98;7.57;;;22.20;75.20;;;;;;5063861;28;20024;-60
2021/09/10 01:32:53;;;;;;;32.25;8.05;;;22.20;75.50;;;;;;5061554;28;20430;-60
2021/09/10 01:35:19;;;;;;;27.67;7.47;;;22.10;75.40;;;;;;5064271;28;20032;-60
2021/09/10 01:37:44;;;;;;;37.17;7.63;;;22.10;75.50;;;;;;5079809;28;20024;-60
2021/09/10 01:40:10;;;;;;;32.15;8.10;;;22.10;76.20;;;;;;5063822;28;20063;-61
2021/09/10 01:42:36;;;;;;;45.00;8.98;;;22.10;75.60;;;;;;5067104;28;20055;-60
2021/09/10 01:45:02;;;;;;;32.92;8.15;;;22.10;75.80;;;;;;5067201;28;20032;-61
2021/09/10 01:47:27;;;;;;;30.65;8.30;;;22.10;76.00;;;;;;5066551;28;20032;-60
2021/09/10 01:49:53;;;;;;;25.10;7.75;;;22.10;76.10;;;;;;5069400;28;20022;-60
2021/09/10 01:52:19;;;;;;;19.70;7.10;;;22.10;76.00;;;;;;5084430;28;20618;-61
2021/09/10 01:54:44;;;;;;;21.05;7.25;;;22.10;76.00;;;;;;5065836;28;20027;-61
2021/09/10 01:57:10;;;;;;;36.45;8.40;;;22.10;76.20;;;;;;5064719;28;20484;-61
2021/09/10 01:59:35;;;;;;;28.23;8.23;;;22.10;76.20;;;;;;5087422;28;20444;-61
2021/09/10 02:02:01;;;;;;;29.85;8.38;;;22.10;76.30;;;;;;5087212;28;20103;-60
2021/09/10 02:04:26;;;;;;;31.30;7.93;;;22.10;76.40;;;;;;5066908;28;20050;-61
2021/09/10 02:06:52;;;;;;;22.48;8.30;;;22.10;76.40;;;;;;5064872;28;20058;-60
2021/09/10 02:09:17;;;;;;;22.30;8.50;;;22.00;76.30;;;;;;5067415;28;20032;-60
2021/09/10 02:11:43;;;;;;;21.30;8.07;;;22.00;76.40;;;;;;5085462;28;20016;-61
2021/09/10 02:14:09;;;;;;;18.48;8.57;;;22.00;76.30;;;;;;5084861;28;20040;-60
2021/09/10 02:16:34;;;;;;;30.77;8.88;;;22.00;76.40;;;;;;5082980;28;20042;-61
2021/09/10 02:19:00;;;;;;;20.58;8.48;;;22.00;76.50;;;;;;5085856;28;20168;-61
2021/09/10 02:21:25;;;;;;;20.15;8.57;;;22.00;76.50;;;;;;5085590;28;20500;-61
2021/09/10 02:23:51;;;;;;;16.45;7.50;;;22.00;76.60;;;;;;5064903;28;20043;-61
2021/09/10 02:26:16;;;;;;;17.20;7.90;;;22.00;76.60;;;;;;5087532;28;20503;-60
2021/09/10 02:28:42;;;;;;;20.23;8.35;;;21.90;76.50;;;;;;5065256;28;20059;-60
2021/09/10 02:31:07;;;;;;;19.48;8.65;;;22.00;76.70;;;;;;5084380;28;20127;-61
2021/09/10 02:33:33;;;;;;;18.15;8.30;;;21.90;76.60;;;;;;5087487;28;20085;-60
2021/09/10 02:35:59;;;;;;;24.98;8.63;;;21.90;76.60;;;;;;5085035;28;20032;-61
2021/09/10 02:38:24;;;;;;;16.83;8.40;;;21.90;76.60;;;;;;5068097;28;20375;-60
2021/09/10 02:40:50;;;;;;;18.73;8.00;;;21.90;76.70;;;;;;5065892;28;20353;-61
2021/09/10 02:43:15;;;;;;;17.45;8.38;;;21.90;76.70;;;;;;5085295;28;20040;-61
2021/09/10 02:45:41;;;;;;;21.02;8.02;;;21.90;76.70;;;;;;5084931;28;20028;-60
2021/09/10 02:48:06;;;;;;;19.33;8.50;;;21.90;76.80;;;;;;5082834;28;20032;-60
2021/09/10 02:50:32;;;;;;;11.80;7.85;;;21.90;76.80;;;;;;5083941;28;20036;-60
2021/09/10 02:52:58;;;;;;;24.17;8.63;;;21.90;76.80;;;;;;5065149;28;20146;-60
2021/09/10 02:55:23;;;;;;;16.02;8.10;;;21.90;76.90;;;;;;5063426;28;20030;-60
2021/09/10 02:57:49;;;;;;;13.68;7.78;;;21.90;77.00;;;;;;5049765;28;20052;-60
2021/09/10 03:00:14;;;;;;;13.52;6.90;;;21.80;76.90;;;;;;5065936;28;20031;-60
2021/09/10 03:02:40;;;;;;;12.60;7.53;;;21.80;76.90;;;;;;5067282;28;20024;-60
2021/09/10 03:05:06;;;;;;;15.70;7.30;;;21.80;77.10;;;;;;5065498;28;20042;-60
2021/09/10 03:07:32;;;;;;;11.20;7.80;;;21.90;77.10;;;;;;5066290;28;20165;-61
2021/09/10 03:09:58;;;;;;;12.77;7.18;;;21.80;77.20;;;;;;5065140;28;20490;-61
2021/09/10 03:12:23;;;;;;;12.90;7.28;;;21.80;77.20;;;;;;5084068;28;20067;-60
2021/09/10 03:14:49;;;;;;;13.18;7.18;;;21.80;77.30;;;;;;5083361;28;20036;-60
2021/09/10 03:17:14;;;;;;;13.25;7.00;;;21.80;77.30;;;;;;5067054;28;20109;-60
2021/09/10 03:19:40;;;;;;;8.90;7.43;;;21.80;77.20;;;;;;5065738;28;20027;-61
2021/09/10 03:22:06;;;;;;;12.20;7.50;;;21.80;77.40;;;;;;5081564;28;20037;-60
2021/09/10 03:24:31;;;;;;;16.67;7.10;;;21.80;77.40;;;;;;5084105;28;20044;-61
2021/09/10 03:26:57;;;;;;;12.65;7.57;;;21.80;77.40;;;;;;5049565;28;20032;-61
2021/09/10 03:29:22;;;;;;;11.07;7.07;;;21.80;77.50;;;;;;5075087;28;20180;-60
2021/09/10 03:31:48;;;;;;;8.18;6.88;;;21.80;77.60;;;;;;5062818;28;20032;-60
2021/09/10 03:34:13;;;;;;;8.77;6.53;;;21.80;77.50;;;;;;5081943;28;20060;-59
2021/09/10 03:36:39;;;;;;;11.35;6.90;;;21.80;77.60;;;;;;5084134;28;20039;-60
2021/09/10 03:39:04;;;;;;;12.02;6.75;;;21.80;77.70;;;;;;5065932;28;20078;-60
2021/09/10 03:41:30;;;;;;;8.48;7.10;;;21.80;77.70;;;;;;5083665;28;20104;-60
2021/09/10 03:43:56;;;;;;;7.60;6.60;;;21.80;77.70;;;;;;5085823;28;20438;-60
2021/09/10 03:46:21;;;;;;;9.30;6.88;;;21.70;77.90;;;;;;5081966;28;20103;-60
2021/09/10 03:48:47;;;;;;;9.48;6.82;;;21.80;77.90;;;;;;5064630;28;20028;-60
2021/09/10 03:51:13;;;;;;;11.73;7.28;;;21.80;77.90;;;;;;5065044;28;21015;-61
2021/09/10 03:53:38;;;;;;;17.92;7.72;;;21.70;78.00;;;;;;5066073;28;20055;-60
2021/09/10 03:56:04;;;;;;;12.15;7.10;;;21.70;78.00;;;;;;5063439;28;20601;-60
2021/09/10 03:58:29;;;;;;;9.75;7.25;;;21.80;78.10;;;;;;5063263;28;20044;-60
2021/09/10 04:00:55;;;;;;;11.18;7.53;;;21.70;78.00;;;;;;5077924;28;20036;-60
2021/09/10 04:03:21;;;;;;;9.48;7.63;;;21.70;78.10;;;;;;5083573;28;20024;-60
2021/09/10 04:05:47;;;;;;;11.20;7.55;;;21.80;78.20;;;;;;5084323;28;20020;-60
2021/09/10 04:08:13;;;;;;;8.48;7.10;;;21.70;78.10;;;;;;5084794;28;20497;-60
2021/09/10 04:10:38;;;;;;;7.95;7.03;;;21.70;78.10;;;;;;5081640;28;20550;-60
2021/09/10 04:13:04;;;;;;;9.00;6.45;;;21.70;78.20;;;;;;5062970;28;20059;-60
2021/09/10 04:15:29;;;;;;;11.68;7.20;;;21.70;78.40;;;;;;5065426;28;20043;-60
2021/09/10 04:17:55;;;;;;;10.18;7.55;;;21.70;78.50;;;;;;5083817;28;20027;-60
2021/09/10 04:20:20;;;;;;;12.23;6.97;;;21.70;78.40;;;;;;5065803;28;20808;-60
2021/09/10 04:22:46;;;;;;;9.38;7.22;;;21.70;78.40;;;;;;5048768;28;20032;-60
2021/09/10 04:25:11;;;;;;;9.93;6.88;;;21.70;78.40;;;;;;5064840;28;20048;-60
2021/09/10 04:27:37;;;;;;;11.57;7.20;;;21.70;78.40;;;;;;5063964;28;20490;-60
2021/09/10 04:30:04;;;;;;;8.48;6.40;;;21.70;78.40;;;;;;5064574;28;20498;-60
2021/09/10 04:32:30;;;;;;;8.40;6.95;;;21.70;78.50;;;;;;5083706;28;20025;-60
2021/09/10 04:34:56;;;;;;;10.70;7.03;;;21.70;78.50;;;;;;5083098;28;20050;-60
2021/09/10 04:37:23;;;;;;;9.77;6.68;;;21.70;78.60;;;;;;5082487;28;20143;-60
2021/09/10 04:39:48;;;;;;;11.80;7.57;;;21.60;78.60;;;;;;5081709;28;20455;-60
2021/09/10 04:42:14;;;;;;;8.95;6.88;;;21.60;78.70;;;;;;5083152;28;20040;-60
2021/09/10 04:44:40;;;;;;;8.18;6.22;;;21.60;78.80;;;;;;5083079;28;20088;-60
2021/09/10 04:47:05;;;;;;;7.18;6.45;;;21.70;78.90;;;;;;5083846;28;20289;-60
2021/09/10 04:49:31;;;;;;;8.45;6.32;;;21.60;78.90;;;;;;5080534;28;20024;-60
2021/09/10 04:51:56;;;;;;;10.68;6.80;;;21.60;79.00;;;;;;5081297;28;20051;-60
2021/09/10 04:54:22;;;;;;;8.18;6.95;;;21.60;79.00;;;;;;5082532;28;20486;-61
2021/09/10 04:56:47;;;;;;;7.10;6.43;;;21.60;79.20;;;;;;5063162;28;20032;-60
2021/09/10 04:59:13;;;;;;;9.10;6.80;;;21.60;79.20;;;;;;5063954;28;20043;-61
2021/09/10 05:01:39;;;;;;;7.35;6.60;;;21.60;79.20;;;;;;5064277;28;20031;-60
2021/09/10 05:04:04;;;;;;;7.03;5.88;;;21.60;79.50;;;;;;5081028;28;20032;-60
2021/09/10 05:06:30;;;;;;;13.20;6.85;;;21.60;79.50;;;;;;5062405;28;20448;-60
2021/09/10 05:08:56;;;;;;;8.20;6.68;;;21.50;79.50;;;;;;5062881;28;20098;-60
2021/09/10 05:11:22;;;;;;;7.75;6.38;;;21.50;79.60;;;;;;5064042;28;20032;-60
2021/09/10 05:13:48;;;;;;;6.70;5.75;;;21.50;79.70;;;;;;5081554;28;20082;-60
2021/09/10 05:16:13;;;;;;;8.27;6.82;;;21.50;79.70;;;;;;5050138;28;20047;-60
2021/09/10 05:18:39;;;;;;;8.07;6.45;;;21.50;79.70;;;;;;5052637;28;20039;-60
2021/09/10 05:21:05;;;;;;;8.45;6.22;;;21.50;79.70;;;;;;5067655;28;20404;-60
2021/09/10 05:23:30;;;;;;;6.65;6.00;;;21.50;79.80;;;;;;5085839;28;20039;-61
2021/09/10 05:25:56;;;;;;;6.55;5.82;;;21.50;79.90;;;;;;5068049;28;20210;-61
2021/09/10 05:28:22;;;;;;;6.72;6.03;;;21.50;79.90;;;;;;5064653;28;20447;-60
2021/09/10 05:30:47;;;;;;;6.20;5.60;;;21.50;79.90;;;;;;5081917;28;20051;-61
2021/09/10 05:33:13;;;;;;;6.95;6.25;;;21.40;79.90;;;;;;5083970;28;20128;-61
2021/09/10 05:35:38;;;;;;;10.70;6.65;;;21.40;80.00;;;;;;5068282;28;20027;-61
2021/09/10 05:38:04;;;;;;;8.13;6.05;;;21.40;80.20;;;;;;5084738;28;20034;-60
2021/09/10 05:40:29;;;;;;;7.15;6.30;;;21.40;80.40;;;;;;5076355;28;20488;-61
2021/09/10 05:42:55;;;;;;;9.98;6.50;;;21.40;80.70;;;;;;5062129;28;20495;-61
2021/09/10 05:45:20;;;;;;;6.75;6.05;;;21.40;80.80;;;;;;5085868;28;20382;-60
2021/09/10 05:47:46;;;;;;;7.07;6.38;;;21.30;80.70;;;;;;5083871;28;20028;-61
2021/09/10 05:50:12;;;;;;;7.70;5.55;;;21.40;81.00;;;;;;5065809;28;20782;-60
2021/09/10 05:52:37;;;;;;;7.03;6.35;;;21.40;81.10;;;;;;5050951;28;20066;-60
2021/09/10 05:55:03;;;;;;;6.78;6.18;;;21.30;81.20;;;;;;5083444;28;20475;-60
2021/09/10 05:57:29;;;;;;;8.50;5.63;;;21.30;81.40;;;;;;5084505;28;20035;-61
2021/09/10 05:59:54;;;;;;;7.68;5.90;;;21.30;81.40;;;;;;5066709;28;20036;-61
2021/09/10 06:02:22;;;;;;;9.88;6.13;;;21.30;81.60;;;;;;5084512;28;20055;-61
2021/09/10 06:04:47;;;;;;;6.53;5.70;;;21.30;81.60;;;;;;5085301;28;20027;-61
2021/09/10 06:07:13;;;;;;;9.18;6.30;;;21.30;82.20;;;;;;5081971;28;20032;-61
2021/09/10 06:09:38;;;;;;;9.95;6.03;;;21.20;81.70;;;;;;5080854;28;20066;-61
2021/09/10 06:12:05;;;;;;;8.15;6.00;;;21.20;81.80;;;;;;5083875;28;20051;-60
2021/09/10 06:14:31;;;;;;;9.60;5.72;;;21.20;81.80;;;;;;5083541;28;20123;-60
2021/09/10 06:16:57;;;;;;;6.25;5.63;;;21.30;81.80;;;;;;5084857;28;20413;-60
2021/09/10 06:19:22;;;;;;;6.93;5.65;;;21.20;81.80;;;;;;5080843;28;20530;-60
2021/09/10 06:21:48;;;;;;;8.73;6.30;;;21.20;81.90;;;;;;5082174;28;20407;-60
2021/09/10 06:24:13;;;;;;;8.90;6.10;;;21.20;82.00;;;;;;5084255;28;20356;-60
2021/09/10 06:26:39;;;;;;;10.15;6.32;;;21.20;82.20;;;;;;5085010;28;20067;-60
2021/09/10 06:29:04;;;;;;;8.35;6.15;;;21.20;82.30;;;;;;5063039;28;20595;-61
2021/09/10 06:31:30;;;;;;;8.88;6.15;;;21.20;82.30;;;;;;5081341;28;20062;-61
2021/09/10 06:33:55;;;;;;;12.10;6.10;;;21.20;82.40;;;;;;5082355;28;20042;-60
2021/09/10 06:36:21;;;;;;;11.02;6.20;;;21.20;82.60;;;;;;5079328;28;20028;-61
2021/09/10 06:38:46;;;;;;;9.68;6.63;;;21.20;82.90;;;;;;5065546;28;20180;-61
2021/09/10 06:41:12;;;;;;;12.93;6.82;;;21.20;82.70;;;;;;5082797;28;20155;-60
2021/09/10 06:43:37;;;;;;;11.20;6.60;;;21.20;83.20;;;;;;5085200;28;20130;-60
2021/09/10 06:46:03;;;;;;;15.48;7.07;;;21.30;83.40;;;;;;5063792;28;20135;-62
2021/09/10 06:48:29;;;;;;;11.20;6.70;;;21.20;83.40;;;;;;5078755;28;20485;-60
2021/09/10 06:50:55;;;;;;;16.60;6.68;;;21.30;83.50;;;;;;5078628;28;20013;-61
2021/09/10 06:53:20;;;;;;;14.13;7.18;;;21.20;83.40;;;;;;5064365;28;20486;-60
2021/09/10 06:55:46;;;;;;;13.30;6.97;;;21.30;83.40;;;;;;5082219;28;20051;-61
2021/09/10 06:58:11;;;;;;;13.68;7.45;;;21.30;83.50;;;;;;5083160;28;20052;-61
2021/09/10 07:00:37;;;;;;;18.17;7.03;;;21.20;83.40;;;;;;5075090;28;20048;-60
2021/09/10 07:03:02;;;;;;;25.23;7.93;;;21.20;83.40;;;;;;5063572;28;20066;-61
2021/09/10 07:05:28;;;;;;;53.17;10.20;;;21.30;83.80;;;;;;5084108;28;20423;-61
2021/09/10 07:07:55;;;;;;;38.20;10.27;;;21.30;84.30;;;;;;5081963;28;20035;-61
2021/09/10 07:10:22;;;;;;;32.42;9.07;;;21.30;84.70;;;;;;5063881;28;20404;-61
2021/09/10 07:12:48;;;;;;;38.72;10.18;;;21.20;85.10;;;;;;5063322;28;20134;-61
2021/09/10 07:15:14;;;;;;;27.15;9.63;;;21.20;85.60;;;;;;5061617;28;20020;-61
2021/09/10 07:17:39;;;;;;;43.55;10.45;;;21.10;85.90;;;;;;5067105;28;20191;-61
2021/09/10 07:20:05;;;;;;;48.20;11.57;;;21.00;86.00;;;;;;5082785;28;20047;-60
2021/09/10 07:22:31;;;;;;;29.25;10.50;;;21.10;86.60;;;;;;5063611;28;20040;-60
2021/09/10 07:24:56;;;;;;;29.42;9.82;;;21.00;87.10;;;;;;5080359;28;20050;-61
2021/09/10 07:27:22;;;;;;;44.03;10.80;;;21.00;87.00;;;;;;5079720;28;20119;-61
2021/09/10 07:29:48;;;;;;;42.47;11.95;;;21.00;87.10;;;;;;5061869;28;20024;-61
2021/09/10 07:32:13;;;;;;;49.47;10.82;;;21.00;87.30;;;;;;5081304;28;20375;-61
2021/09/10 07:34:39;;;;;;;62.80;12.85;;;21.00;87.70;;;;;;5081062;28;20454;-60
2021/09/10 07:37:04;;;;;;;41.67;10.95;;;21.00;87.70;;;;;;5081661;28;20055;-61
2021/09/10 07:39:30;;;;;;;38.33;11.68;;;21.00;87.90;;;;;;5059343;28;20140;-61
2021/09/10 07:41:55;;;;;;;37.63;10.50;;;21.00;87.70;;;;;;5082362;28;20890;-61
2021/09/10 07:44:21;;;;;;;40.58;11.02;;;21.10;87.70;;;;;;5081304;28;20027;-61
2021/09/10 07:46:47;;;;;;;46.47;12.63;;;21.10;88.00;;;;;;5061940;28;20502;-61
2021/09/10 07:49:12;;;;;;;38.47;11.07;;;21.10;87.80;;;;;;5063009;28;20020;-60
2021/09/10 07:51:38;;;;;;;38.40;11.45;;;21.10;88.00;;;;;;5055637;28;20040;-61
2021/09/10 07:54:06;;;;;;;39.25;10.77;;;21.10;87.80;;;;;;5078601;28;20078;-63
2021/09/10 07:56:32;;;;;;;76.65;13.43;;;21.10;87.80;;;;;;5076696;28;20039;-62
2021/09/10 07:58:58;;;;;;;42.20;11.70;;;21.10;87.80;;;;;;5061249;28;20024;-61
2021/09/10 08:01:24;;;;;;;49.70;11.52;;;21.10;87.60;;;;;;5075755;28;20074;-61
2021/09/10 08:03:49;;;;;;;46.15;11.90;;;21.10;87.50;;;;;;5072398;28;20044;-61
2021/09/10 08:06:15;;;;;;;60.28;12.73;;;21.10;87.40;;;;;;5061848;28;20096;-61
2021/09/10 08:08:40;;;;;;;38.90;11.85;;;21.20;87.30;;;;;;5078161;28;20270;-61
2021/09/10 08:11:06;;;;;;;32.40;10.95;;;21.20;87.20;;;;;;5057791;28;20051;-61
2021/09/10 08:13:31;;;;;;;54.13;11.48;;;21.20;86.90;;;;;;5062116;28;20174;-61
2021/09/10 08:15:57;;;;;;;57.70;12.45;;;21.30;87.00;;;;;;5081143;28;20103;-61
2021/09/10 08:18:22;;;;;;;61.10;11.82;;;21.20;87.20;;;;;;5059964;28;20138;-60
2021/09/10 08:20:48;;;;;;;48.15;13.07;;;21.20;87.20;;;;;;5044195;28;20020;-61
2021/09/10 08:23:14;;;;;;;82.22;13.50;;;21.30;87.00;;;;;;5080439;28;20059;-61
2021/09/10 08:25:39;;;;;;;71.63;14.48;;;21.30;86.70;;;;;;5062080;28;20099;-61
2021/09/10 08:28:05;;;;;;;85.90;14.85;;;21.30;86.50;;;;;;5059934;28;20020;-61
2021/09/10 08:30:31;;;;;;;54.20;12.82;;;21.30;87.30;;;;;;5060680;28;20040;-61
2021/09/10 08:32:57;;;;;;;48.00;13.52;;;21.30;86.70;;;;;;5044927;28;20615;-61
2021/09/10 08:35:23;;;;;;;57.47;13.50;;;21.40;86.80;;;;;;5061170;28;20117;-61
2021/09/10 08:37:49;;;;;;;47.67;13.07;;;21.40;87.30;;;;;;5061496;28;20028;-61
2021/09/10 08:40:15;;;;;;;54.35;14.05;;;21.40;87.40;;;;;;5059980;28;20143;-61
2021/09/10 08:42:40;;;;;;;47.95;12.65;;;21.40;87.50;;;;;;5067090;28;20020;-61
2021/09/10 08:45:06;;;;;;;47.92;12.32;;;21.40;87.40;;;;;;5062249;28;20098;-60
2021/09/10 08:47:32;;;;;;;74.28;14.30;;;21.40;87.00;;;;;;5059563;28;20452;-61
2021/09/10 08:49:57;;;;;;;49.47;13.45;;;21.50;87.40;;;;;;5064560;28;20040;-61
2021/09/10 08:52:23;;;;;;;53.20;12.48;;;21.50;87.10;;;;;;5067954;28;20028;-61
2021/09/10 08:54:48;;;;;;;55.10;11.05;;;21.50;86.80;;;;;;5064520;28;20059;-60
2021/09/10 08:57:14;;;;;;;53.70;12.65;;;21.50;86.90;;;;;;5046973;28;20089;-60
2021/09/10 08:59:39;;;;;;;42.75;12.43;;;21.60;86.60;;;;;;5088033;28;20519;-60
2021/09/10 09:02:05;;;;;;;56.35;12.20;;;21.60;87.20;;;;;;5079295;28;20017;-61
2021/09/10 09:04:35;;;;;;;43.67;11.40;;;21.60;87.10;;;;;;5059652;28;20483;-61
2021/09/10 09:07:02;;;;;;;60.58;12.63;;;21.60;87.10;;;;;;5061823;28;20112;-61
2021/09/10 09:09:34;;;;;;;42.65;12.43;;;21.70;87.20;;;;;;5089096;28;20028;-61
2021/09/10 09:12:21;;;;;;;55.65;11.90;;;21.70;86.90;;;;;;5060665;28;20444;-61
2021/09/10 09:14:58;;;;;;;87.75;13.93;;;21.70;86.90;;;;;;5076341;28;20024;-61
2021/09/10 09:17:30;;;;;;;68.80;12.32;;;21.70;86.00;;;;;;5045729;28;20122;-61
2021/09/10 09:20:18;;;;;;;118.57;17.23;;;21.80;86.20;;;;;;5063217;28;20031;-61
2021/09/10 09:23:10;;;;;;;86.22;14.70;;;21.80;85.90;;;;;;5079559;28;20024;-63
2021/09/10 09:25:40;;;;;;;73.95;12.43;;;21.90;85.80;;;;;;5041348;28;20118;-61
2021/09/10 09:28:26;;;;;;;141.38;19.38;;;22.10;85.50;;;;;;5056714;28;20570;-62
2021/09/10 09:31:01;;;;;;;68.05;13.02;;;22.00;84.80;;;;;;5032640;28;20072;-61
2021/09/10 09:33:34;;;;;;;;;;;22.00;84.60;;;;;;5040325;28;20032;-61
2021/09/10 09:36:02;;;;;;;38.83;9.85;;;22.00;84.50;;;;;;5040967;28;19927;-63
2021/09/10 09:38:29;;;;;;;70.38;14.73;;;22.00;84.20;;;;;;5024316;28;20045;-61
2021/09/10 09:41:03;;;;;;;60.20;12.05;;;22.00;84.20;;;;;;5042079;28;20115;-61
2021/09/10 09:43:41;;;;;;;57.95;12.57;;;22.00;84.20;;;;;;5057587;28;20116;-61
2021/09/10 09:46:14;;;;;;;41.08;11.18;;;22.00;84.20;;;;;;5043263;28;20060;-60
2021/09/10 09:48:43;;;;;;;42.20;9.93;;;22.00;84.20;;;;;;5042604;28;20020;-61
2021/09/10 09:51:09;;;;;;;37.22;10.45;;;22.10;84.20;;;;;;5040209;28;20035;-61
2021/09/10 09:53:35;;;;;;;41.17;9.70;;;22.00;84.10;;;;;;5013737;28;21404;-60
2021/09/10 09:56:01;;;;;;;33.25;9.77;;;22.10;83.80;;;;;;5033224;28;20040;-61
2021/09/10 09:58:28;;;;;;;41.40;10.27;;;22.10;83.70;;;;;;5042415;28;20470;-61
2021/09/10 10:00:54;;;;;;;52.53;9.93;;;22.10;83.40;;;;;;5028937;28;20024;-61
2021/09/10 10:03:19;;;;;;;53.13;11.38;;;22.10;83.10;;;;;;5063379;28;20043;-61
2021/09/10 10:06:04;;;;;;;35.72;9.07;;;22.10;82.90;;;;;;5064789;28;20063;-61
2021/09/10 10:08:41;;;;;;;35.83;8.45;;;22.10;82.70;;;;;;5044187;28;20435;-61
2021/09/10 10:11:18;;;;;;;59.95;10.50;;;22.20;82.50;;;;;;5064061;28;20472;-61
2021/09/10 10:13:44;;;;;;;27.02;8.25;;;22.20;82.20;;;;;;5030392;28;20040;-61
2021/09/10 10:16:34;;;;;;;46.53;9.73;;;22.20;82.10;;;;;;5028840;28;20024;-61
2021/09/10 10:18:59;;;;;;;38.80;9.32;;;22.20;82.10;;;;;;5047297;28;20041;-61
2021/09/10 10:21:58;;;;;;;88.60;12.48;;;22.20;82.00;;;;;;5066900;28;20055;-60
2021/09/10 10:24:49;;;;;;;43.95;9.27;;;22.20;81.80;;;;;;5048358;28;20045;-61
2021/09/10 10:27:32;;;;;;;49.72;9.82;;;22.20;81.90;;;;;;5020717;28;20024;-60
2021/09/10 10:30:07;;;;;;;56.10;10.85;;;22.20;81.80;;;;;;5065618;28;20033;-61
2021/09/10 10:32:39;;;;;;;46.17;10.15;;;22.20;82.10;;;;;;5067162;28;20056;-61
2021/09/10 10:35:16;;;;;;;43.92;11.20;;;22.20;82.20;;;;;;5067427;28;20036;-61
2021/09/10 10:37:46;;;;;;;31.45;8.77;;;22.20;82.40;;;;;;5027721;28;20120;-61
2021/09/10 10:40:30;;;;;;;134.35;16.52;;;22.20;82.10;;;;;;5066366;28;20028;-61
2021/09/10 10:42:59;;;;;;;38.75;10.63;;;22.20;82.60;;;;;;5066880;28;20028;-60
2021/09/10 10:45:57;;;;;;;34.33;9.90;;;22.20;82.40;;;;;;5030062;28;20040;-61
2021/09/10 10:48:29;;;;;;;48.65;9.52;;;22.20;82.30;;;;;;5047612;28;20033;-61
2021/09/10 10:50:55;;;;;;;43.20;9.82;;;22.20;82.50;;;;;;5066051;28;20027;-61
2021/09/10 10:53:20;;;;;;;25.77;8.68;;;22.20;82.70;;;;;;5064124;28;20600;-60
2021/09/10 10:55:46;;;;;;;32.60;10.43;;;22.20;82.70;;;;;;5027146;28;20059;-61
2021/09/10 10:58:25;;;;;;;43.75;9.20;;;22.20;82.90;;;;;;5066213;28;20054;-61
2021/09/10 11:01:00;;;;;;;43.63;9.60;;;22.30;82.70;;;;;;5044915;28;20044;-61
2021/09/10 11:03:25;;;;;;;23.95;9.38;;;22.20;82.50;;;;;;5045093;28;20166;-61
2021/09/10 11:05:55;;;;;;;30.35;9.57;;;22.30;82.30;;;;;;5065582;28;20032;-60
2021/09/10 11:08:36;;;;;;;41.47;10.30;;;22.30;82.10;;;;;;5049327;28;20123;-61
2021/09/10 11:11:02;;;;;;;35.70;9.52;;;22.20;82.00;;;;;;5061219;28;20048;-61
2021/09/10 11:13:28;;;;;;;52.25;11.10;;;22.30;81.90;;;;;;5046572;28;20036;-61
2021/09/10 11:15:53;;;;;;;39.38;9.85;;;22.30;82.20;;;;;;5047873;28;20072;-61
2021/09/10 11:18:19;;;;;;;40.10;9.88;;;22.20;82.20;;;;;;5067197;28;20029;-61
2021/09/10 11:20:49;;;;;;;22.23;8.77;;;22.30;82.10;;;;;;5040165;28;20041;-61
2021/09/10 11:23:17;;;;;;;30.75;10.20;;;22.30;82.20;;;;;;5027772;28;20123;-61
2021/09/10 11:25:46;;;;;;;52.47;9.88;;;22.30;82.00;;;;;;5051099;28;20048;-61
2021/09/10 11:28:12;;;;;;;119.05;15.98;;;22.30;81.60;;;;;;5074021;28;20563;-60
2021/09/10 11:30:38;;;;;;;49.28;10.77;;;22.30;81.30;;;;;;5058967;28;20078;-60
2021/09/10 11:33:03;;;;;;;37.45;9.88;;;22.40;81.10;;;;;;5047000;28;20573;-61
2021/09/10 11:35:30;;;;;;;44.75;9.60;;;22.40;80.90;;;;;;5044895;28;20020;-60
2021/09/10 11:38:04;;;;;;;51.53;10.25;;;22.40;80.90;;;;;;5062299;28;20100;-61
2021/09/10 11:40:59;;;;;;;43.03;9.85;;;22.50;80.90;;;;;;5082602;28;20016;-60
2021/09/10 11:43:26;;;;;;;41.60;9.60;;;22.50;80.60;;;;;;5064870;28;20793;-61
2021/09/10 11:45:52;;;;;;;46.00;9.88;;;22.50;80.10;;;;;;5080599;28;20367;-60
2021/09/10 11:48:46;;;;;;;51.75;9.65;;;22.50;79.90;;;;;;5058297;28;20028;-61
2021/09/10 11:51:13;;;;;;;46.47;10.68;;;22.50;79.80;;;;;;5077482;28;20059;-60
2021/09/10 11:53:56;;;;;;;24.08;9.02;;;22.60;79.60;;;;;;5059736;28;20089;-61
2021/09/10 11:56:32;;;;;;;37.80;9.18;;;22.60;79.40;;;;;;5047309;28;20024;-61
2021/09/10 11:58:58;;;;;;;70.47;10.55;;;22.60;79.30;;;;;;5063793;28;20012;-61
2021/09/10 12:01:37;;;;;;;82.97;12.02;;;22.60;79.70;;;;;;5061228;28;20024;-61
2021/09/10 12:04:09;;;;;;;58.47;9.75;;;22.60;78.90;;;;;;5081529;28;20206;-61
2021/09/10 12:06:45;;;;;;;41.83;9.68;;;22.70;78.70;;;;;;5062505;28;21275;-61
2021/09/10 12:09:15;;;;;;;42.75;8.88;;;22.70;78.20;;;;;;5061945;28;20099;-61
2021/09/10 12:12:17;;;;;;;38.88;9.32;;;22.80;78.10;;;;;;5073395;28;20039;-61
2021/09/10 12:14:51;;;;;;;34.83;9.25;;;22.80;78.00;;;;;;4995556;28;20498;-61
2021/09/10 12:17:23;;;;;;;42.20;9.60;;;22.90;78.00;;;;;;5064859;28;20036;-61
2021/09/10 12:20:13;;;;;;;37.83;8.52;;;22.90;77.70;;;;;;5077893;28;20176;-63
2021/09/10 12:22:43;;;;;;;32.25;8.98;;;22.90;77.40;;;;;;5081181;28;20539;-61
2021/09/10 12:25:25;;;;;;;35.72;8.05;;;23.00;77.10;;;;;;5052391;28;20046;-61
2021/09/10 12:28:02;;;;;;;34.20;8.27;;;23.00;77.10;;;;;;5046993;28;20373;-61
2021/09/10 12:30:28;;;;;;;51.30;8.95;;;23.00;76.90;;;;;;5060097;28;20040;-61
2021/09/10 12:32:54;;;;;;;34.55;8.35;;;23.10;76.90;;;;;;5039264;28;20063;-60
2021/09/10 12:35:20;;;;;;;48.40;10.02;;;23.10;76.90;;;;;;5051330;28;20417;-61
2021/09/10 12:38:01;;;;;;;45.03;8.77;;;23.10;77.10;;;;;;5059824;28;20024;-61